sensor_id;sensor_type;location;lat;lon;timestamp;pressure;altitude;pressure_sealevel;temperature
22828;BMP180;11580;52.562;13.418;2022-10-16T00:01:30;100252.00;;;20.00
22828;BMP180;11580;52.562;13.418;2022-10-16T00:04:00;100259.00;;;20.00
22828;BMP180;11580;52.562;13.418;2022-10-16T00:06:29;100262.00;;;20.00
22828;BMP180;11580;52.562;13.418;2022-10-16T00:08:57;100259.00;;;20.00
22828;BMP180;11580;52.562;13.418;2022-10-16T00:11:27;100263.00;;;20.00
22828;BMP180;11580;52.562;13.418;2022-10-16T00:13:57;100260.00;;;20.10
22828;BMP180;11580;52.562;13.418;2022-10-16T00:16:28;100263.00;;;20.10
22828;BMP180;11580;52.562;13.418;2022-10-16T00:18:55;100270.00;;;20.10
22828;BMP180;11580;52.562;13.418;2022-10-16T00:21:25;100271.00;;;20.20
22828;BMP180;11580;52.562;13.418;2022-10-16T00:23:56;100273.00;;;20.20
22828;BMP180;11580;52.562;13.418;2022-10-16T00:26:28;100279.00;;;20.20
22828;BMP180;11580;52.562;13.418;2022-10-16T00:28:56;100276.00;;;20.30
22828;BMP180;11580;52.562;13.418;2022-10-16T00:31:24;100280.00;;;20.30
22828;BMP180;11580;52.562;13.418;2022-10-16T00:33:53;100290.00;;;20.30
22828;BMP180;11580;52.562;13.418;2022-10-16T00:36:23;100290.00;;;20.30
22828;BMP180;11580;52.562;13.418;2022-10-16T00:38:51;100293.00;;;20.30
22828;BMP180;11580;52.562;13.418;2022-10-16T00:41:21;100299.00;;;20.30
22828;BMP180;11580;52.562;13.418;2022-10-16T00:43:52;100296.00;;;20.40
22828;BMP180;11580;52.562;13.418;2022-10-16T00:46:23;100290.00;;;20.30
22828;BMP180;11580;52.562;13.418;2022-10-16T00:48:57;100287.00;;;20.30
22828;BMP180;11580;52.562;13.418;2022-10-16T00:51:33;100291.00;;;20.30
22828;BMP180;11580;52.562;13.418;2022-10-16T00:54:02;100285.00;;;20.30
22828;BMP180;11580;52.562;13.418;2022-10-16T00:56:32;100281.00;;;20.20
22828;BMP180;11580;52.562;13.418;2022-10-16T00:59:03;100279.00;;;20.20
22828;BMP180;11580;52.562;13.418;2022-10-16T01:01:31;100283.00;;;20.20
22828;BMP180;11580;52.562;13.418;2022-10-16T01:04:00;100299.00;;;20.20
22828;BMP180;11580;52.562;13.418;2022-10-16T01:06:36;100295.00;;;20.20
22828;BMP180;11580;52.562;13.418;2022-10-16T01:09:18;100290.00;;;20.20
22828;BMP180;11580;52.562;13.418;2022-10-16T01:11:59;100298.00;;;20.10
22828;BMP180;11580;52.562;13.418;2022-10-16T01:14:40;100295.00;;;20.10
22828;BMP180;11580;52.562;13.418;2022-10-16T01:17:15;100300.00;;;20.10
22828;BMP180;11580;52.562;13.418;2022-10-16T01:20:04;100303.00;;;20.10
22828;BMP180;11580;52.562;13.418;2022-10-16T01:22:44;100305.00;;;20.00
22828;BMP180;11580;52.562;13.418;2022-10-16T01:25:24;100307.00;;;20.10
22828;BMP180;11580;52.562;13.418;2022-10-16T01:27:54;100307.00;;;20.10
22828;BMP180;11580;52.562;13.418;2022-10-16T01:30:25;100309.00;;;20.10
22828;BMP180;11580;52.562;13.418;2022-10-16T01:32:59;100309.00;;;20.10
22828;BMP180;11580;52.562;13.418;2022-10-16T01:35:32;100310.00;;;20.10
22828;BMP180;11580;52.562;13.418;2022-10-16T01:38:06;100317.00;;;20.10
22828;BMP180;11580;52.562;13.418;2022-10-16T01:40:37;100313.00;;;20.10
22828;BMP180;11580;52.562;13.418;2022-10-16T01:43:12;100325.00;;;20.10
22828;BMP180;11580;52.562;13.418;2022-10-16T01:45:42;100326.00;;;20.10
22828;BMP180;11580;52.562;13.418;2022-10-16T01:48:13;100321.00;;;20.10
22828;BMP180;11580;52.562;13.418;2022-10-16T01:50:44;100324.00;;;20.10
22828;BMP180;11580;52.562;13.418;2022-10-16T01:53:16;100321.00;;;20.10
22828;BMP180;11580;52.562;13.418;2022-10-16T01:55:47;100323.00;;;20.10
22828;BMP180;11580;52.562;13.418;2022-10-16T01:58:17;100316.00;;;20.10
22828;BMP180;11580;52.562;13.418;2022-10-16T02:00:47;100324.00;;;20.10
22828;BMP180;11580;52.562;13.418;2022-10-16T02:03:18;100335.00;;;20.10
22828;BMP180;11580;52.562;13.418;2022-10-16T02:05:51;100316.00;;;20.10
22828;BMP180;11580;52.562;13.418;2022-10-16T02:08:20;100332.00;;;20.10
22828;BMP180;11580;52.562;13.418;2022-10-16T02:10:49;100343.00;;;20.10
22828;BMP180;11580;52.562;13.418;2022-10-16T02:13:26;100344.00;;;20.20
22828;BMP180;11580;52.562;13.418;2022-10-16T02:15:54;100335.00;;;20.20
22828;BMP180;11580;52.562;13.418;2022-10-16T02:18:22;100339.00;;;20.20
22828;BMP180;11580;52.562;13.418;2022-10-16T02:20:53;100356.00;;;20.20
22828;BMP180;11580;52.562;13.418;2022-10-16T02:23:30;100364.00;;;20.20
22828;BMP180;11580;52.562;13.418;2022-10-16T02:26:03;100360.00;;;20.20
22828;BMP180;11580;52.562;13.418;2022-10-16T02:28:40;100361.00;;;20.30
22828;BMP180;11580;52.562;13.418;2022-10-16T02:31:12;100361.00;;;20.30
22828;BMP180;11580;52.562;13.418;2022-10-16T02:33:42;100350.00;;;20.30
22828;BMP180;11580;52.562;13.418;2022-10-16T02:36:11;100367.00;;;20.30
22828;BMP180;11580;52.562;13.418;2022-10-16T02:38:40;100370.00;;;20.30
22828;BMP180;11580;52.562;13.418;2022-10-16T02:41:08;100373.00;;;20.30
22828;BMP180;11580;52.562;13.418;2022-10-16T02:43:37;100372.00;;;20.30
22828;BMP180;11580;52.562;13.418;2022-10-16T02:46:04;100366.00;;;20.30
22828;BMP180;11580;52.562;13.418;2022-10-16T02:48:31;100361.00;;;20.40
22828;BMP180;11580;52.562;13.418;2022-10-16T02:50:59;100373.00;;;20.40
22828;BMP180;11580;52.562;13.418;2022-10-16T02:53:26;100375.00;;;20.40
22828;BMP180;11580;52.562;13.418;2022-10-16T02:55:53;100374.00;;;20.40
22828;BMP180;11580;52.562;13.418;2022-10-16T02:58:20;100373.00;;;20.40
22828;BMP180;11580;52.562;13.418;2022-10-16T03:00:48;100378.00;;;20.40
22828;BMP180;11580;52.562;13.418;2022-10-16T03:03:16;100371.00;;;20.30
22828;BMP180;11580;52.562;13.418;2022-10-16T03:05:43;100380.00;;;20.30
22828;BMP180;11580;52.562;13.418;2022-10-16T03:08:11;100379.00;;;20.30
22828;BMP180;11580;52.562;13.418;2022-10-16T03:10:38;100360.00;;;20.30
22828;BMP180;11580;52.562;13.418;2022-10-16T03:13:06;100376.00;;;20.20
22828;BMP180;11580;52.562;13.418;2022-10-16T03:15:33;100382.00;;;20.20
22828;BMP180;11580;52.562;13.418;2022-10-16T03:18:01;100384.00;;;20.20
22828;BMP180;11580;52.562;13.418;2022-10-16T03:20:28;100381.00;;;20.10
22828;BMP180;11580;52.562;13.418;2022-10-16T03:22:56;100389.00;;;20.10
22828;BMP180;11580;52.562;13.418;2022-10-16T03:25:23;100395.00;;;20.00
22828;BMP180;11580;52.562;13.418;2022-10-16T03:27:50;100396.00;;;20.00
22828;BMP180;11580;52.562;13.418;2022-10-16T03:30:17;100396.00;;;19.90
22828;BMP180;11580;52.562;13.418;2022-10-16T03:32:45;100395.00;;;19.90
22828;BMP180;11580;52.562;13.418;2022-10-16T03:35:13;100393.00;;;19.80
22828;BMP180;11580;52.562;13.418;2022-10-16T03:37:40;100404.00;;;19.80
22828;BMP180;11580;52.562;13.418;2022-10-16T03:40:09;100401.00;;;19.70
22828;BMP180;11580;52.562;13.418;2022-10-16T03:42:36;100408.00;;;19.70
22828;BMP180;11580;52.562;13.418;2022-10-16T03:45:04;100418.00;;;19.70
22828;BMP180;11580;52.562;13.418;2022-10-16T03:47:32;100416.00;;;19.60
22828;BMP180;11580;52.562;13.418;2022-10-16T03:49:59;100413.00;;;19.60
22828;BMP180;11580;52.562;13.418;2022-10-16T03:52:28;100414.00;;;19.60
22828;BMP180;11580;52.562;13.418;2022-10-16T03:54:55;100434.00;;;19.50
22828;BMP180;11580;52.562;13.418;2022-10-16T03:57:23;100433.00;;;19.50
22828;BMP180;11580;52.562;13.418;2022-10-16T03:59:50;100436.00;;;19.50
22828;BMP180;11580;52.562;13.418;2022-10-16T04:02:17;100435.00;;;19.40
22828;BMP180;11580;52.562;13.418;2022-10-16T04:04:45;100437.00;;;19.40
22828;BMP180;11580;52.562;13.418;2022-10-16T04:07:12;100431.00;;;19.40
22828;BMP180;11580;52.562;13.418;2022-10-16T04:09:40;100432.00;;;19.40
22828;BMP180;11580;52.562;13.418;2022-10-16T04:12:07;100440.00;;;19.40
22828;BMP180;11580;52.562;13.418;2022-10-16T04:14:34;100442.00;;;19.40
22828;BMP180;11580;52.562;13.418;2022-10-16T04:17:02;100439.00;;;19.40
22828;BMP180;11580;52.562;13.418;2022-10-16T04:19:29;100449.00;;;19.40
22828;BMP180;11580;52.562;13.418;2022-10-16T04:21:56;100452.00;;;19.40
22828;BMP180;11580;52.562;13.418;2022-10-16T04:24:23;100455.00;;;19.40
22828;BMP180;11580;52.562;13.418;2022-10-16T04:26:52;100450.00;;;19.40
22828;BMP180;11580;52.562;13.418;2022-10-16T04:29:19;100445.00;;;19.40
22828;BMP180;11580;52.562;13.418;2022-10-16T04:31:47;100453.00;;;19.40
22828;BMP180;11580;52.562;13.418;2022-10-16T04:34:14;100445.00;;;19.40
22828;BMP180;11580;52.562;13.418;2022-10-16T04:36:41;100434.00;;;19.40
22828;BMP180;11580;52.562;13.418;2022-10-16T04:39:08;100401.00;;;19.30
22828;BMP180;11580;52.562;13.418;2022-10-16T04:41:35;100440.00;;;19.30
22828;BMP180;11580;52.562;13.418;2022-10-16T04:44:04;100434.00;;;19.30
22828;BMP180;11580;52.562;13.418;2022-10-16T04:46:31;100432.00;;;19.20
22828;BMP180;11580;52.562;13.418;2022-10-16T04:48:58;100429.00;;;19.20
22828;BMP180;11580;52.562;13.418;2022-10-16T04:51:26;100422.00;;;19.20
22828;BMP180;11580;52.562;13.418;2022-10-16T04:53:53;100420.00;;;19.20
22828;BMP180;11580;52.562;13.418;2022-10-16T04:56:21;100421.00;;;19.20
22828;BMP180;11580;52.562;13.418;2022-10-16T04:58:48;100422.00;;;19.10
22828;BMP180;11580;52.562;13.418;2022-10-16T05:01:17;100425.00;;;19.10
22828;BMP180;11580;52.562;13.418;2022-10-16T05:03:44;100432.00;;;19.10
22828;BMP180;11580;52.562;13.418;2022-10-16T05:06:12;100443.00;;;19.10
22828;BMP180;11580;52.562;13.418;2022-10-16T05:08:39;100449.00;;;19.00
22828;BMP180;11580;52.562;13.418;2022-10-16T05:11:06;100446.00;;;19.00
22828;BMP180;11580;52.562;13.418;2022-10-16T05:13:33;100461.00;;;19.00
22828;BMP180;11580;52.562;13.418;2022-10-16T05:16:01;100469.00;;;18.90
22828;BMP180;11580;52.562;13.418;2022-10-16T05:18:29;100466.00;;;18.90
22828;BMP180;11580;52.562;13.418;2022-10-16T05:20:56;100470.00;;;18.90
22828;BMP180;11580;52.562;13.418;2022-10-16T05:23:23;100468.00;;;18.90
22828;BMP180;11580;52.562;13.418;2022-10-16T05:25:55;100453.00;;;18.90
22828;BMP180;11580;52.562;13.418;2022-10-16T05:28:24;100466.00;;;18.90
22828;BMP180;11580;52.562;13.418;2022-10-16T05:30:51;100467.00;;;18.90
22828;BMP180;11580;52.562;13.418;2022-10-16T05:33:21;100464.00;;;18.90
22828;BMP180;11580;52.562;13.418;2022-10-16T05:35:49;100454.00;;;18.90
22828;BMP180;11580;52.562;13.418;2022-10-16T05:38:17;100464.00;;;18.90
22828;BMP180;11580;52.562;13.418;2022-10-16T05:40:51;100473.00;;;19.00
22828;BMP180;11580;52.562;13.418;2022-10-16T05:43:18;100476.00;;;19.00
22828;BMP180;11580;52.562;13.418;2022-10-16T05:45:54;100474.00;;;19.00
22828;BMP180;11580;52.562;13.418;2022-10-16T05:48:22;100477.00;;;19.00
22828;BMP180;11580;52.562;13.418;2022-10-16T05:50:57;100486.00;;;19.10
22828;BMP180;11580;52.562;13.418;2022-10-16T05:53:24;100484.00;;;19.10
22828;BMP180;11580;52.562;13.418;2022-10-16T05:55:53;100488.00;;;19.20
22828;BMP180;11580;52.562;13.418;2022-10-16T05:58:21;100478.00;;;19.30
22828;BMP180;11580;52.562;13.418;2022-10-16T06:00:55;100476.00;;;19.30
22828;BMP180;11580;52.562;13.418;2022-10-16T06:03:22;100484.00;;;19.40
22828;BMP180;11580;52.562;13.418;2022-10-16T06:05:51;100483.00;;;19.40
22828;BMP180;11580;52.562;13.418;2022-10-16T06:08:21;100490.00;;;19.50
22828;BMP180;11580;52.562;13.418;2022-10-16T06:11:00;100492.00;;;19.50
22828;BMP180;11580;52.562;13.418;2022-10-16T06:13:27;100497.00;;;19.60
22828;BMP180;11580;52.562;13.418;2022-10-16T06:15:57;100509.00;;;19.60
22828;BMP180;11580;52.562;13.418;2022-10-16T06:18:26;100507.00;;;19.60
22828;BMP180;11580;52.562;13.418;2022-10-16T06:20:55;100504.00;;;19.70
22828;BMP180;11580;52.562;13.418;2022-10-16T06:23:23;100502.00;;;19.80
22828;BMP180;11580;52.562;13.418;2022-10-16T06:25:50;100506.00;;;19.80
22828;BMP180;11580;52.562;13.418;2022-10-16T06:28:18;100476.00;;;19.90
22828;BMP180;11580;52.562;13.418;2022-10-16T06:30:45;100504.00;;;20.00
22828;BMP180;11580;52.562;13.418;2022-10-16T06:33:12;100509.00;;;20.00
22828;BMP180;11580;52.562;13.418;2022-10-16T06:35:40;100511.00;;;20.10
22828;BMP180;11580;52.562;13.418;2022-10-16T06:38:08;100521.00;;;20.20
22828;BMP180;11580;52.562;13.418;2022-10-16T06:40:36;100531.00;;;20.20
22828;BMP180;11580;52.562;13.418;2022-10-16T06:43:03;100534.00;;;20.30
22828;BMP180;11580;52.562;13.418;2022-10-16T06:45:30;100543.00;;;20.30
22828;BMP180;11580;52.562;13.418;2022-10-16T06:47:58;100545.00;;;20.40
22828;BMP180;11580;52.562;13.418;2022-10-16T06:50:25;100544.00;;;20.50
22828;BMP180;11580;52.562;13.418;2022-10-16T06:52:52;100558.00;;;20.60
22828;BMP180;11580;52.562;13.418;2022-10-16T06:55:20;100549.00;;;20.60
22828;BMP180;11580;52.562;13.418;2022-10-16T06:57:48;100546.00;;;20.70
22828;BMP180;11580;52.562;13.418;2022-10-16T07:00:15;100549.00;;;20.80
22828;BMP180;11580;52.562;13.418;2022-10-16T07:02:42;100545.00;;;20.90
22828;BMP180;11580;52.562;13.418;2022-10-16T07:05:09;100560.00;;;20.90
22828;BMP180;11580;52.562;13.418;2022-10-16T07:07:37;100567.00;;;21.00
22828;BMP180;11580;52.562;13.418;2022-10-16T07:10:05;100565.00;;;21.10
22828;BMP180;11580;52.562;13.418;2022-10-16T07:12:33;100568.00;;;21.20
22828;BMP180;11580;52.562;13.418;2022-10-16T07:15:00;100583.00;;;21.30
22828;BMP180;11580;52.562;13.418;2022-10-16T07:17:27;100581.00;;;21.40
22828;BMP180;11580;52.562;13.418;2022-10-16T07:19:55;100590.00;;;21.50
22828;BMP180;11580;52.562;13.418;2022-10-16T07:22:22;100583.00;;;21.60
22828;BMP180;11580;52.562;13.418;2022-10-16T07:24:49;100580.00;;;21.70
22828;BMP180;11580;52.562;13.418;2022-10-16T07:27:17;100576.00;;;21.80
22828;BMP180;11580;52.562;13.418;2022-10-16T07:29:45;100576.00;;;21.80
22828;BMP180;11580;52.562;13.418;2022-10-16T07:32:13;100581.00;;;21.90
22828;BMP180;11580;52.562;13.418;2022-10-16T07:34:40;100587.00;;;22.00
22828;BMP180;11580;52.562;13.418;2022-10-16T07:37:07;100572.00;;;22.10
22828;BMP180;11580;52.562;13.418;2022-10-16T07:39:35;100577.00;;;22.20
22828;BMP180;11580;52.562;13.418;2022-10-16T07:42:02;100581.00;;;22.20
22828;BMP180;11580;52.562;13.418;2022-10-16T07:44:29;100600.00;;;22.30
22828;BMP180;11580;52.562;13.418;2022-10-16T07:46:58;100603.00;;;22.40
22828;BMP180;11580;52.562;13.418;2022-10-16T07:49:25;100606.00;;;22.40
22828;BMP180;11580;52.562;13.418;2022-10-16T07:51:52;100593.00;;;22.50
22828;BMP180;11580;52.562;13.418;2022-10-16T07:54:19;100591.00;;;22.50
22828;BMP180;11580;52.562;13.418;2022-10-16T07:56:46;100591.00;;;22.50
22828;BMP180;11580;52.562;13.418;2022-10-16T07:59:14;100590.00;;;22.50
22828;BMP180;11580;52.562;13.418;2022-10-16T08:01:41;100593.00;;;22.50
22828;BMP180;11580;52.562;13.418;2022-10-16T08:04:10;100609.00;;;22.50
22828;BMP180;11580;52.562;13.418;2022-10-16T08:06:39;100612.00;;;22.50
22828;BMP180;11580;52.562;13.418;2022-10-16T08:09:08;100626.00;;;22.50
22828;BMP180;11580;52.562;13.418;2022-10-16T08:11:35;100634.00;;;22.50
22828;BMP180;11580;52.562;13.418;2022-10-16T08:14:02;100632.00;;;22.50
22828;BMP180;11580;52.562;13.418;2022-10-16T08:16:30;100631.00;;;22.50
22828;BMP180;11580;52.562;13.418;2022-10-16T08:18:57;100636.00;;;22.50
22828;BMP180;11580;52.562;13.418;2022-10-16T08:21:25;100632.00;;;22.50
22828;BMP180;11580;52.562;13.418;2022-10-16T08:23:53;100621.00;;;22.60
22828;BMP180;11580;52.562;13.418;2022-10-16T08:26:21;100618.00;;;22.60
22828;BMP180;11580;52.562;13.418;2022-10-16T08:28:50;100624.00;;;22.60
22828;BMP180;11580;52.562;13.418;2022-10-16T08:31:17;100629.00;;;22.70
22828;BMP180;11580;52.562;13.418;2022-10-16T08:33:45;100638.00;;;22.70
22828;BMP180;11580;52.562;13.418;2022-10-16T08:36:15;100648.00;;;22.70
22828;BMP180;11580;52.562;13.418;2022-10-16T08:38:47;100647.00;;;22.70
22828;BMP180;11580;52.562;13.418;2022-10-16T08:41:32;100649.00;;;22.70
22828;BMP180;11580;52.562;13.418;2022-10-16T08:44:29;100638.00;;;22.80
22828;BMP180;11580;52.562;13.418;2022-10-16T08:47:08;100644.00;;;22.80
22828;BMP180;11580;52.562;13.418;2022-10-16T08:49:40;100636.00;;;22.90
22828;BMP180;11580;52.562;13.418;2022-10-16T08:52:12;100652.00;;;23.00
22828;BMP180;11580;52.562;13.418;2022-10-16T08:54:47;100643.00;;;23.10
22828;BMP180;11580;52.562;13.418;2022-10-16T08:57:20;100652.00;;;23.10
22828;BMP180;11580;52.562;13.418;2022-10-16T08:59:47;100647.00;;;23.20
22828;BMP180;11580;52.562;13.418;2022-10-16T09:02:28;100661.00;;;23.20
22828;BMP180;11580;52.562;13.418;2022-10-16T09:05:23;100658.00;;;23.30
22828;BMP180;11580;52.562;13.418;2022-10-16T09:08:05;100670.00;;;23.30
22828;BMP180;11580;52.562;13.418;2022-10-16T09:10:51;100671.00;;;23.40
22828;BMP180;11580;52.562;13.418;2022-10-16T09:13:29;100674.00;;;23.50
22828;BMP180;11580;52.562;13.418;2022-10-16T09:16:12;100677.00;;;23.60
22828;BMP180;11580;52.562;13.418;2022-10-16T09:18:48;100677.00;;;23.60
22828;BMP180;11580;52.562;13.418;2022-10-16T09:21:21;100684.00;;;23.70
22828;BMP180;11580;52.562;13.418;2022-10-16T09:23:50;100686.00;;;23.70
22828;BMP180;11580;52.562;13.418;2022-10-16T09:26:19;100676.00;;;23.70
22828;BMP180;11580;52.562;13.418;2022-10-16T09:28:47;100679.00;;;23.70
22828;BMP180;11580;52.562;13.418;2022-10-16T09:31:21;100675.00;;;23.70
22828;BMP180;11580;52.562;13.418;2022-10-16T09:33:53;100676.00;;;23.60
22828;BMP180;11580;52.562;13.418;2022-10-16T09:36:23;100678.00;;;23.60
22828;BMP180;11580;52.562;13.418;2022-10-16T09:39:04;100687.00;;;23.60
22828;BMP180;11580;52.562;13.418;2022-10-16T09:41:35;100686.00;;;23.50
22828;BMP180;11580;52.562;13.418;2022-10-16T09:44:17;100679.00;;;23.40
22828;BMP180;11580;52.562;13.418;2022-10-16T09:46:45;100690.00;;;23.30
22828;BMP180;11580;52.562;13.418;2022-10-16T09:49:22;100692.00;;;23.30
22828;BMP180;11580;52.562;13.418;2022-10-16T09:52:03;100687.00;;;23.30
22828;BMP180;11580;52.562;13.418;2022-10-16T09:54:30;100704.00;;;23.20
22828;BMP180;11580;52.562;13.418;2022-10-16T09:57:07;100708.00;;;23.10
22828;BMP180;11580;52.562;13.418;2022-10-16T09:59:34;100711.00;;;23.20
22828;BMP180;11580;52.562;13.418;2022-10-16T10:02:04;100713.00;;;23.20
22828;BMP180;11580;52.562;13.418;2022-10-16T10:04:41;100712.00;;;23.20
22828;BMP180;11580;52.562;13.418;2022-10-16T10:07:20;100715.00;;;23.30
22828;BMP180;11580;52.562;13.418;2022-10-16T10:09:48;100722.00;;;23.30
22828;BMP180;11580;52.562;13.418;2022-10-16T10:12:21;100738.00;;;23.40
22828;BMP180;11580;52.562;13.418;2022-10-16T10:14:52;100730.00;;;23.40
22828;BMP180;11580;52.562;13.418;2022-10-16T10:17:21;100711.00;;;23.40
22828;BMP180;11580;52.562;13.418;2022-10-16T10:19:53;100729.00;;;23.50
22828;BMP180;11580;52.562;13.418;2022-10-16T10:22:32;100729.00;;;23.50
22828;BMP180;11580;52.562;13.418;2022-10-16T10:25:39;100732.00;;;23.50
22828;BMP180;11580;52.562;13.418;2022-10-16T10:28:45;100723.00;;;23.50
22828;BMP180;11580;52.562;13.418;2022-10-16T10:31:21;100730.00;;;23.50
22828;BMP180;11580;52.562;13.418;2022-10-16T10:33:59;100741.00;;;23.50
22828;BMP180;11580;52.562;13.418;2022-10-16T10:36:33;100748.00;;;23.50
22828;BMP180;11580;52.562;13.418;2022-10-16T10:39:06;100766.00;;;23.50
22828;BMP180;11580;52.562;13.418;2022-10-16T10:42:09;100757.00;;;23.60
22828;BMP180;11580;52.562;13.418;2022-10-16T10:45:17;100754.00;;;23.60
22828;BMP180;11580;52.562;13.418;2022-10-16T10:47:57;100766.00;;;23.70
22828;BMP180;11580;52.562;13.418;2022-10-16T10:50:36;100750.00;;;23.80
22828;BMP180;11580;52.562;13.418;2022-10-16T10:53:27;100756.00;;;23.90
22828;BMP180;11580;52.562;13.418;2022-10-16T10:56:14;100751.00;;;24.00
22828;BMP180;11580;52.562;13.418;2022-10-16T11:01:56;100760.00;;;24.40
22828;BMP180;11580;52.562;13.418;2022-10-16T11:07:49;100761.00;;;24.60
22828;BMP180;11580;52.562;13.418;2022-10-16T11:10:23;100765.00;;;24.80
22828;BMP180;11580;52.562;13.418;2022-10-16T11:12:58;100765.00;;;24.90
22828;BMP180;11580;52.562;13.418;2022-10-16T11:15:30;100764.00;;;25.00
22828;BMP180;11580;52.562;13.418;2022-10-16T11:18:06;100763.00;;;25.00
22828;BMP180;11580;52.562;13.418;2022-10-16T11:20:41;100772.00;;;25.10
22828;BMP180;11580;52.562;13.418;2022-10-16T11:23:16;100764.00;;;25.20
22828;BMP180;11580;52.562;13.418;2022-10-16T11:25:46;100757.00;;;25.20
22828;BMP180;11580;52.562;13.418;2022-10-16T11:28:18;100764.00;;;25.10
22828;BMP180;11580;52.562;13.418;2022-10-16T11:30:54;100767.00;;;25.10
22828;BMP180;11580;52.562;13.418;2022-10-16T11:33:32;100760.00;;;25.00
22828;BMP180;11580;52.562;13.418;2022-10-16T11:36:12;100757.00;;;24.90
22828;BMP180;11580;52.562;13.418;2022-10-16T11:38:49;100759.00;;;24.80
22828;BMP180;11580;52.562;13.418;2022-10-16T11:41:28;100758.00;;;24.60
22828;BMP180;11580;52.562;13.418;2022-10-16T11:44:19;100758.00;;;24.50
22828;BMP180;11580;52.562;13.418;2022-10-16T11:46:59;100760.00;;;24.30
22828;BMP180;11580;52.562;13.418;2022-10-16T11:49:32;100754.00;;;24.20
22828;BMP180;11580;52.562;13.418;2022-10-16T11:52:11;100758.00;;;24.10
22828;BMP180;11580;52.562;13.418;2022-10-16T11:54:50;100758.00;;;24.00
22828;BMP180;11580;52.562;13.418;2022-10-16T11:57:23;100773.00;;;23.90
22828;BMP180;11580;52.562;13.418;2022-10-16T11:59:55;100767.00;;;23.80
22828;BMP180;11580;52.562;13.418;2022-10-16T12:02:40;100767.00;;;23.70
22828;BMP180;11580;52.562;13.418;2022-10-16T12:05:24;100774.00;;;23.60
22828;BMP180;11580;52.562;13.418;2022-10-16T12:08:08;100762.00;;;23.60
22828;BMP180;11580;52.562;13.418;2022-10-16T12:10:38;100775.00;;;23.50
22828;BMP180;11580;52.562;13.418;2022-10-16T12:13:33;100784.00;;;23.40
22828;BMP180;11580;52.562;13.418;2022-10-16T12:16:22;100765.00;;;23.40
22828;BMP180;11580;52.562;13.418;2022-10-16T12:19:11;100804.00;;;23.30
22828;BMP180;11580;52.562;13.418;2022-10-16T12:21:41;100776.00;;;23.30
22828;BMP180;11580;52.562;13.418;2022-10-16T12:24:26;100797.00;;;23.40
22828;BMP180;11580;52.562;13.418;2022-10-16T12:26:54;100795.00;;;23.40
22828;BMP180;11580;52.562;13.418;2022-10-16T12:29:33;100795.00;;;23.40
22828;BMP180;11580;52.562;13.418;2022-10-16T12:32:02;100797.00;;;23.40
22828;BMP180;11580;52.562;13.418;2022-10-16T12:34:40;100800.00;;;23.50
22828;BMP180;11580;52.562;13.418;2022-10-16T12:37:15;100804.00;;;23.50
22828;BMP180;11580;52.562;13.418;2022-10-16T12:39:48;100810.00;;;23.50
22828;BMP180;11580;52.562;13.418;2022-10-16T12:42:32;100805.00;;;23.60
22828;BMP180;11580;52.562;13.418;2022-10-16T12:45:01;100805.00;;;23.60
22828;BMP180;11580;52.562;13.418;2022-10-16T12:47:50;100814.00;;;23.60
22828;BMP180;11580;52.562;13.418;2022-10-16T12:50:28;100815.00;;;23.60
22828;BMP180;11580;52.562;13.418;2022-10-16T12:52:58;100820.00;;;23.60
22828;BMP180;11580;52.562;13.418;2022-10-16T12:55:27;100813.00;;;23.70
22828;BMP180;11580;52.562;13.418;2022-10-16T12:58:24;100828.00;;;23.70
22828;BMP180;11580;52.562;13.418;2022-10-16T13:01:01;100828.00;;;23.70
22828;BMP180;11580;52.562;13.418;2022-10-16T13:04:01;100824.00;;;23.70
22828;BMP180;11580;52.562;13.418;2022-10-16T13:06:40;100830.00;;;23.80
22828;BMP180;11580;52.562;13.418;2022-10-16T13:09:33;100829.00;;;23.80
22828;BMP180;11580;52.562;13.418;2022-10-16T13:12:20;100844.00;;;23.80
22828;BMP180;11580;52.562;13.418;2022-10-16T13:15:15;100834.00;;;23.80
22828;BMP180;11580;52.562;13.418;2022-10-16T13:17:57;100836.00;;;23.80
22828;BMP180;11580;52.562;13.418;2022-10-16T13:20:34;100847.00;;;23.90
22828;BMP180;11580;52.562;13.418;2022-10-16T13:23:14;100850.00;;;23.90
22828;BMP180;11580;52.562;13.418;2022-10-16T13:26:00;100859.00;;;23.90
22828;BMP180;11580;52.562;13.418;2022-10-16T13:28:33;100857.00;;;23.90
22828;BMP180;11580;52.562;13.418;2022-10-16T13:31:02;100870.00;;;23.90
22828;BMP180;11580;52.562;13.418;2022-10-16T13:33:34;100858.00;;;23.80
22828;BMP180;11580;52.562;13.418;2022-10-16T13:36:03;100867.00;;;23.80
22828;BMP180;11580;52.562;13.418;2022-10-16T13:38:33;100862.00;;;23.80
22828;BMP180;11580;52.562;13.418;2022-10-16T13:41:05;100865.00;;;23.80
22828;BMP180;11580;52.562;13.418;2022-10-16T13:43:36;100871.00;;;23.70
22828;BMP180;11580;52.562;13.418;2022-10-16T13:46:06;100866.00;;;23.70
22828;BMP180;11580;52.562;13.418;2022-10-16T13:48:34;100870.00;;;23.60
22828;BMP180;11580;52.562;13.418;2022-10-16T13:51:05;100861.00;;;23.60
22828;BMP180;11580;52.562;13.418;2022-10-16T13:53:34;100862.00;;;23.50
22828;BMP180;11580;52.562;13.418;2022-10-16T13:56:06;100863.00;;;23.50
22828;BMP180;11580;52.562;13.418;2022-10-16T13:58:33;100861.00;;;23.50
22828;BMP180;11580;52.562;13.418;2022-10-16T14:01:04;100850.00;;;23.50
22828;BMP180;11580;52.562;13.418;2022-10-16T14:03:34;100859.00;;;23.40
22828;BMP180;11580;52.562;13.418;2022-10-16T14:06:06;100868.00;;;23.40
22828;BMP180;11580;52.562;13.418;2022-10-16T14:08:44;100873.00;;;23.40
22828;BMP180;11580;52.562;13.418;2022-10-16T14:11:21;100878.00;;;23.40
22828;BMP180;11580;52.562;13.418;2022-10-16T14:13:50;100874.00;;;23.40
22828;BMP180;11580;52.562;13.418;2022-10-16T14:16:21;100886.00;;;23.40
22828;BMP180;11580;52.562;13.418;2022-10-16T14:18:57;100883.00;;;23.40